createdAt,value
2023-02-11T00:01:11.376Z,84.34
2023-02-11T00:03:39.685Z,84.31
2023-02-11T00:06:11.911Z,84.27
2023-02-11T00:08:40.221Z,84.24
2023-02-11T00:11:10.416Z,84.22
2023-02-11T00:13:38.064Z,84.19
2023-02-11T00:16:10.622Z,84.17
2023-02-11T00:18:38.756Z,84.15
2023-02-11T00:21:11.636Z,84.14
2023-02-11T00:23:39.995Z,84.13
2023-02-11T00:26:17.743Z,84.09
2023-02-11T00:28:46.894Z,84.13
2023-02-11T00:31:16.222Z,84.21
2023-02-11T00:33:44.768Z,84.17
2023-02-11T00:36:16.601Z,84.05
2023-02-11T00:38:46.116Z,83.89
2023-02-11T00:41:15.615Z,83.78
2023-02-11T00:43:43.889Z,83.70
2023-02-11T00:46:12.308Z,83.57
2023-02-11T00:48:40.679Z,83.41
2023-02-11T00:51:09.090Z,83.32
2023-02-11T00:53:36.804Z,83.22
2023-02-11T00:56:05.385Z,83.18
2023-02-11T00:58:33.483Z,83.15
2023-02-11T07:01:42.283Z,77.55
2023-02-11T07:04:10.445Z,77.67
2023-02-11T07:06:38.219Z,77.36
2023-02-11T07:09:05.959Z,77.24
2023-02-11T07:11:34.072Z,77.17
2023-02-11T07:14:08.504Z,77.10
2023-02-11T07:16:36.775Z,77.00
2023-02-11T07:19:04.733Z,76.90
2023-02-11T07:21:32.569Z,77.20
2023-02-11T07:24:00.292Z,77.27
2023-02-11T07:26:29.221Z,77.37
2023-02-11T07:28:56.996Z,77.43
2023-02-11T07:31:27.436Z,77.49
2023-02-11T07:34:00.073Z,77.55
2023-02-11T07:36:29.824Z,77.57
2023-02-11T07:38:58.406Z,77.61
2023-02-11T07:41:28.296Z,77.72
2023-02-11T07:43:56.472Z,77.79
2023-02-11T07:46:27.480Z,78.07
2023-02-11T07:48:55.788Z,78.15
2023-02-11T07:51:27.171Z,78.32
2023-02-11T07:53:57.664Z,78.48
2023-02-11T07:56:25.708Z,78.64
2023-02-11T07:58:54.534Z,78.81
2023-02-11T08:01:28.472Z,79.16
2023-02-11T08:03:58.465Z,79.44
2023-02-11T08:06:29.202Z,79.81
2023-02-11T08:08:57.203Z,80.27
2023-02-11T08:11:27.737Z,80.63
2023-02-11T08:13:56.698Z,81.11
2023-02-11T08:16:27.212Z,81.62
2023-02-11T08:19:00.400Z,82.23
2023-02-11T08:21:28.688Z,82.75
2023-02-11T08:23:56.752Z,82.67
2023-02-11T08:26:29.030Z,82.86
2023-02-11T08:28:57.936Z,83.10
2023-02-11T08:31:33.385Z,83.41
2023-02-11T08:34:02.608Z,84.22
2023-02-11T08:36:34.268Z,84.83
2023-02-11T08:39:17.960Z,84.65
2023-02-11T08:41:49.383Z,84.67
2023-02-11T08:44:18.783Z,84.79
2023-02-11T08:46:47.446Z,84.95
2023-02-11T08:49:15.697Z,85.12
2023-02-11T08:51:44.131Z,84.97
2023-02-11T08:54:12.546Z,84.89
2023-02-11T08:56:40.567Z,84.99
2023-02-11T08:59:11.533Z,85.15
2023-02-11T09:01:39.565Z,85.45
2023-02-11T09:04:08.373Z,85.65
2023-02-11T09:06:36.169Z,85.73
2023-02-11T09:09:04.800Z,85.70
2023-02-11T09:11:35.241Z,85.73
2023-02-11T09:14:04.505Z,85.93
2023-02-11T09:16:35.764Z,85.96
2023-02-11T09:19:05.489Z,85.92
2023-02-11T09:21:33.571Z,85.79
2023-02-11T09:24:01.860Z,85.70
2023-02-11T09:26:32.480Z,85.49
2023-02-11T09:29:01.268Z,85.30
2023-02-11T09:31:31.391Z,85.36
2023-02-11T09:34:02.550Z,85.25
2023-02-11T09:36:34.693Z,85.24
2023-02-11T09:39:02.473Z,85.20
2023-02-11T09:42:01.276Z,85.23
2023-02-11T09:44:32.302Z,85.22
2023-02-11T09:47:06.311Z,85.13
2023-02-11T09:49:40.988Z,85.38
2023-02-11T09:52:15.780Z,85.33
2023-02-11T09:54:55.450Z,85.48
2023-02-11T09:57:36.309Z,85.46
2023-02-11T10:00:19.389Z,85.34
2023-02-11T10:03:05.576Z,85.48
2023-02-11T10:05:53.780Z,85.32
2023-02-11T10:08:40.448Z,85.38
2023-02-11T10:11:32.102Z,85.62
2023-02-11T10:14:07.494Z,85.91
2023-02-11T10:16:53.537Z,86.10
2023-02-11T10:19:43.157Z,86.89
2023-02-11T10:22:20.038Z,86.66
2023-02-11T10:24:58.576Z,86.78
2023-02-11T10:27:35.537Z,86.98
2023-02-11T10:30:28.731Z,87.72
2023-02-11T10:33:20.851Z,87.66
2023-02-11T10:35:49.080Z,87.73
2023-02-11T10:38:16.908Z,87.68
2023-02-11T10:40:45.006Z,87.79
2023-02-11T10:43:17.918Z,87.82
2023-02-11T10:45:51.420Z,87.95
2023-02-11T10:48:42.879Z,88.08
2023-02-11T10:51:18.694Z,88.27
2023-02-11T10:53:48.607Z,88.31
2023-02-11T10:56:30.468Z,88.48
2023-02-11T10:59:01.167Z,88.51
2023-02-11T11:01:53.897Z,88.68
2023-02-11T11:04:31.250Z,88.71
2023-02-11T11:07:25.609Z,88.69
2023-02-11T11:10:28.126Z,88.62
2023-02-11T11:12:56.002Z,88.66
2023-02-11T11:15:29.878Z,88.78
2023-02-11T11:18:21.401Z,88.75
2023-02-11T11:21:13.737Z,88.80
2023-02-11T11:23:49.422Z,88.70
2023-02-11T11:26:17.971Z,88.61
2023-02-11T11:28:54.671Z,88.61
2023-02-11T11:31:27.123Z,88.55
2023-02-11T11:33:58.180Z,88.51
2023-02-11T11:36:35.474Z,88.46
2023-02-11T11:39:18.683Z,88.38
2023-02-11T11:41:56.416Z,88.37
2023-02-11T11:44:32.948Z,88.36
2023-02-11T11:47:13.612Z,88.32
2023-02-11T11:49:51.219Z,88.36
2023-02-11T11:52:27.727Z,88.75
2023-02-11T11:55:11.511Z,88.67
2023-02-11T11:57:40.732Z,88.67
2023-02-11T12:00:53.682Z,88.81
2023-02-11T12:03:34.312Z,88.87
2023-02-11T12:06:26.858Z,89.23
2023-02-11T12:09:21.823Z,89.35
2023-02-11T12:12:17.257Z,89.88
2023-02-11T12:15:11.951Z,90.02
2023-02-11T12:18:06.097Z,90.16
2023-02-11T12:20:36.771Z,90.16
2023-02-11T12:23:38.748Z,90.06
2023-02-11T12:26:20.531Z,89.99
2023-02-11T12:29:16.040Z,90.11
2023-02-11T12:31:55.155Z,90.10
2023-02-11T12:34:45.341Z,90.13
2023-02-11T12:37:32.767Z,90.18
2023-02-11T12:40:17.181Z,90.17
2023-02-11T12:43:16.595Z,90.18
2023-02-11T12:45:47.141Z,90.20
2023-02-11T12:48:45.788Z,90.23
2023-02-11T12:51:32.563Z,90.13
2023-02-11T12:54:33.349Z,90.00
2023-02-11T12:57:17.546Z,89.89
2023-02-11T12:59:47.836Z,89.97
2023-02-11T13:02:30.650Z,89.87
2023-02-11T13:05:04.603Z,89.72
2023-02-11T13:07:41.805Z,89.54
2023-02-11T13:10:21.843Z,89.39
2023-02-11T13:13:10.425Z,89.34
2023-02-11T13:15:39.264Z,89.24
2023-02-11T13:18:22.506Z,89.14
2023-02-11T13:21:10.448Z,88.98
2023-02-11T13:24:07.907Z,88.85
2023-02-11T13:26:47.596Z,88.79
2023-02-11T13:29:24.629Z,88.73
2023-02-11T13:32:12.154Z,88.64
2023-02-11T13:34:43.001Z,88.60
2023-02-11T13:37:36.326Z,88.62
2023-02-11T13:40:19.088Z,88.65
2023-02-11T13:42:53.399Z,88.69
2023-02-11T13:45:31.582Z,88.71
2023-02-11T13:48:02.220Z,88.80
2023-02-11T13:50:35.511Z,88.90
2023-02-11T13:53:07.276Z,89.05
2023-02-11T13:55:36.019Z,89.15
2023-02-11T13:58:06.709Z,89.22
2023-02-11T14:00:34.546Z,89.32
2023-02-11T14:03:45.818Z,89.33
2023-02-11T14:06:36.013Z,89.40
2023-02-11T14:09:09.690Z,89.51
2023-02-11T14:11:43.015Z,89.63
2023-02-11T14:14:33.944Z,89.65
2023-02-11T14:17:07.782Z,89.74
2023-02-11T14:19:41.159Z,89.67
2023-02-11T14:22:19.851Z,89.72
2023-02-11T14:25:05.640Z,89.85
2023-02-11T14:27:39.323Z,89.79
2023-02-11T14:30:45.794Z,89.87
2023-02-11T14:33:16.260Z,90.09
2023-02-11T14:35:58.681Z,90.35
2023-02-11T14:38:26.297Z,90.19
2023-02-11T14:41:14.959Z,90.20
2023-02-11T14:43:47.989Z,90.23
2023-02-11T14:46:18.869Z,90.45
2023-02-11T14:48:50.613Z,90.50
2023-02-11T14:51:23.629Z,90.47
2023-02-11T14:53:55.665Z,90.48
2023-02-11T14:56:26.726Z,90.48
2023-02-11T14:58:55.388Z,90.50
2023-02-11T15:01:35.447Z,90.64
2023-02-11T15:04:06.412Z,90.64
2023-02-11T15:06:40.124Z,90.61
2023-02-11T15:09:17.305Z,90.59
2023-02-11T15:11:48.633Z,90.65
2023-02-11T15:14:36.586Z,90.62
2023-02-11T15:17:08.235Z,90.67
2023-02-11T15:19:41.259Z,90.64
2023-02-11T15:22:18.832Z,90.70
2023-02-11T15:24:59.218Z,90.81
2023-02-11T15:27:27.396Z,90.80
2023-02-11T15:29:55.212Z,90.75
2023-02-11T15:32:26.022Z,90.76
2023-02-11T15:34:54.520Z,90.78
2023-02-11T15:37:26.106Z,90.94
2023-02-11T15:39:54.285Z,91.04
2023-02-11T15:42:40.841Z,91.05
2023-02-11T15:45:15.082Z,90.98
2023-02-11T15:47:50.940Z,90.98
2023-02-11T15:50:26.040Z,91.02
2023-02-11T15:52:55.674Z,91.07
2023-02-11T15:55:27.260Z,91.13
2023-02-11T15:57:58.531Z,91.19
2023-02-11T16:00:46.401Z,91.16
2023-02-11T16:03:33.184Z,91.27
2023-02-11T16:06:22.107Z,91.25
2023-02-11T16:09:04.839Z,91.25
2023-02-11T16:11:58.249Z,91.21
2023-02-11T16:14:39.419Z,91.21
2023-02-11T16:17:26.237Z,91.23
2023-02-11T16:19:54.892Z,91.32
2023-02-11T16:22:30.543Z,91.30
2023-02-11T16:25:00.033Z,91.28
2023-02-11T16:27:41.137Z,91.30
2023-02-11T16:30:29.217Z,91.31
2023-02-11T16:32:56.961Z,91.31
2023-02-11T16:35:24.737Z,91.29
2023-02-11T16:37:52.528Z,91.28
2023-02-11T16:40:20.351Z,91.26
2023-02-11T16:42:47.997Z,91.26
2023-02-11T16:45:15.856Z,91.26
2023-02-11T16:47:43.639Z,91.25
2023-02-11T16:50:20.847Z,91.26
2023-02-11T16:52:49.010Z,91.30
2023-02-11T16:55:17.278Z,91.32
2023-02-11T16:57:45.078Z,91.31
2023-02-11T17:00:16.664Z,91.31
2023-02-11T17:02:44.459Z,91.30
2023-02-11T17:05:24.915Z,91.30
2023-02-11T17:07:52.784Z,91.29
2023-02-11T17:10:23.190Z,91.36
2023-02-11T17:12:51.364Z,91.31
2023-02-11T17:15:19.142Z,91.28
2023-02-11T17:17:46.832Z,91.25
2023-02-11T17:20:15.377Z,91.26
2023-02-11T17:22:43.093Z,91.23
2023-02-11T17:25:11.302Z,91.19
2023-02-11T17:27:39.066Z,91.15
2023-02-11T17:30:07.616Z,91.11
2023-02-11T17:32:36.552Z,91.08
2023-02-11T17:35:06.427Z,91.06
2023-02-11T17:37:34.098Z,91.04
2023-02-11T17:40:01.846Z,91.07
2023-02-11T17:42:31.313Z,91.04
2023-02-11T17:44:59.065Z,90.99
2023-02-11T17:47:26.757Z,91.00
2023-02-11T17:49:54.465Z,91.02
2023-02-11T17:52:24.169Z,91.02
2023-02-11T17:54:51.964Z,91.01
2023-02-11T17:57:19.716Z,91.02
2023-02-11T17:59:47.573Z,91.01
2023-02-11T18:02:15.351Z,91.07
2023-02-11T18:04:43.144Z,91.12
2023-02-11T18:07:10.909Z,91.11
2023-02-11T18:09:40.427Z,91.09
2023-02-11T18:12:09.067Z,91.07
2023-02-11T18:14:40.441Z,91.06
2023-02-11T18:17:08.976Z,91.08
2023-02-11T18:19:37.722Z,91.10
2023-02-11T18:22:05.508Z,91.10
2023-02-11T18:24:33.241Z,91.15
2023-02-11T18:27:01.000Z,91.16
2023-02-11T18:29:28.810Z,91.22
2023-02-11T18:31:57.420Z,91.26
2023-02-11T18:34:25.716Z,91.28
2023-02-11T18:36:53.578Z,91.36
2023-02-11T18:39:24.271Z,91.37
2023-02-11T18:41:56.774Z,91.33
2023-02-11T18:44:25.565Z,91.32
2023-02-11T18:46:53.716Z,91.34
2023-02-11T18:49:21.430Z,91.38
2023-02-11T18:51:49.154Z,91.35
2023-02-11T18:54:16.973Z,91.41
2023-02-11T18:56:45.144Z,91.39
2023-02-11T18:59:13.077Z,91.38
2023-02-11T19:01:43.391Z,91.39
2023-02-11T19:04:11.443Z,91.40
2023-02-11T19:06:39.627Z,91.43
2023-02-11T19:09:17.235Z,91.46
2023-02-11T19:11:52.351Z,91.45
2023-02-11T19:14:24.575Z,91.45
2023-02-11T19:16:55.605Z,91.47
2023-02-11T19:19:25.473Z,91.45
2023-02-11T19:21:53.507Z,91.44
2023-02-11T19:24:23.405Z,91.45
2023-02-11T19:26:53.348Z,91.44
2023-02-11T19:29:21.310Z,91.55
2023-02-11T19:31:49.994Z,91.52
2023-02-11T19:34:20.048Z,91.51
2023-02-11T19:36:49.538Z,91.50
2023-02-11T19:39:18.462Z,91.47
2023-02-11T19:41:46.305Z,91.47
2023-02-11T19:44:14.413Z,91.43
2023-02-11T19:46:42.188Z,91.43
2023-02-11T19:49:14.801Z,91.41
2023-02-11T19:51:42.453Z,91.47
2023-02-11T19:54:10.290Z,91.44
2023-02-11T19:56:38.024Z,91.40
2023-02-11T19:59:08.876Z,91.37
2023-02-11T20:01:37.098Z,91.37
2023-02-11T20:04:04.933Z,91.38
2023-02-11T20:06:34.292Z,91.43
2023-02-11T20:09:06.586Z,91.41
2023-02-11T20:11:35.548Z,91.51
2023-02-11T20:14:04.829Z,91.48
2023-02-11T20:16:47.539Z,91.49
2023-02-11T20:19:18.961Z,91.42
2023-02-11T20:21:49.054Z,91.39
2023-02-11T20:24:18.277Z,91.34
2023-02-11T20:26:48.595Z,91.28
2023-02-11T20:29:17.870Z,91.21
2023-02-11T20:31:45.909Z,91.12
2023-02-11T20:34:14.414Z,91.05
2023-02-11T20:36:42.241Z,90.97
2023-02-11T20:39:11.486Z,90.90
2023-02-11T20:41:41.845Z,90.81
2023-02-11T20:44:10.748Z,90.72
2023-02-11T20:46:41.953Z,90.68
2023-02-11T20:49:15.694Z,90.66
2023-02-11T20:51:46.006Z,90.61
2023-02-11T20:54:17.828Z,90.58
2023-02-11T20:56:48.502Z,90.50
2023-02-11T20:59:16.908Z,90.42
2023-02-11T21:01:48.358Z,90.33
2023-02-11T21:04:22.594Z,90.28
2023-02-11T21:06:53.738Z,90.25
2023-02-11T21:09:24.674Z,90.13
2023-02-11T21:11:54.301Z,90.08
2023-02-11T21:14:24.071Z,90.06
2023-02-11T21:16:52.474Z,89.98
2023-02-11T21:19:20.384Z,89.93
2023-02-11T21:21:48.421Z,89.86
2023-02-11T21:24:16.234Z,89.76
2023-02-11T21:26:44.132Z,89.66
2023-02-11T21:29:12.058Z,89.61
2023-02-11T21:31:40.160Z,89.51
2023-02-11T21:34:08.110Z,89.47
2023-02-11T21:36:35.906Z,89.42
2023-02-11T21:39:04.277Z,89.35
2023-02-11T21:41:32.070Z,89.33
2023-02-11T21:43:59.791Z,89.27
2023-02-11T21:46:27.890Z,89.27
2023-02-11T21:48:57.493Z,89.26
2023-02-11T21:51:26.337Z,89.22
2023-02-11T21:53:55.589Z,89.11
2023-02-11T21:56:24.341Z,89.15
2023-02-11T21:58:54.095Z,88.89
2023-02-11T22:01:31.145Z,88.84
2023-02-11T22:03:59.869Z,88.59
2023-02-11T22:06:31.151Z,87.57
2023-02-11T22:09:04.211Z,85.70
2023-02-11T22:11:32.083Z,82.72
2023-02-11T22:13:59.853Z,81.58
2023-02-11T22:16:28.748Z,80.23
2023-02-11T22:18:58.740Z,80.01
2023-02-11T22:21:27.967Z,80.18
2023-02-11T22:23:56.371Z,80.31
2023-02-11T22:26:26.769Z,80.18
2023-02-11T22:28:55.393Z,80.22
2023-02-11T22:31:26.799Z,79.48
2023-02-11T22:33:54.676Z,79.53
2023-02-11T22:36:33.551Z,79.81
2023-02-11T22:39:04.537Z,78.85
2023-02-11T22:41:33.370Z,79.05
2023-02-11T22:44:01.380Z,77.23
2023-02-11T22:46:29.106Z,77.29
2023-02-11T22:48:56.997Z,78.05
2023-02-11T22:51:28.101Z,78.43
2023-02-11T22:54:01.047Z,78.21
2023-02-11T22:56:30.989Z,78.93
2023-02-11T22:59:05.585Z,78.00
2023-02-11T23:01:34.220Z,77.75
2023-02-11T23:04:04.471Z,78.42
2023-02-11T23:06:32.237Z,77.85
2023-02-11T23:09:00.122Z,78.14
2023-02-11T23:11:30.060Z,78.60
2023-02-11T23:13:58.555Z,77.98
2023-02-11T23:16:30.899Z,78.21
2023-02-11T23:19:00.997Z,78.39
2023-02-11T23:21:31.885Z,78.49
2023-02-11T23:24:03.181Z,78.81
2023-02-11T23:26:31.547Z,78.48
2023-02-11T23:28:59.872Z,78.25
2023-02-11T23:31:35.102Z,78.53
2023-02-11T23:34:04.067Z,78.44
2023-02-11T23:36:32.397Z,78.23
2023-02-11T23:39:00.246Z,78.23
2023-02-11T23:41:28.142Z,77.98
2023-02-11T23:43:57.955Z,77.80
2023-02-11T23:46:27.030Z,77.74
2023-02-11T23:48:55.355Z,77.86
2023-02-11T23:51:24.007Z,77.65
2023-02-11T23:53:53.039Z,78.07
2023-02-11T23:56:24.057Z,77.74
2023-02-11T23:58:54.772Z,78.23
